TOURFACTS.DK  
Stats and Facts from Tour de France.

Tour de France 2019 starts in 323 days
  Riders   Stages   Teams   Summits   Yearly  


 
Search by year

After 2018 - Stage 21:
 15000 starters.
  5165 different riders.
  638 teams.
  2253 stages.
  456 restdays.
  442940.60 km.
  5684 abandonnees.


Top 3
GC
Geraint Thomas83:17:13
Tom Dumoulin83:19:04
Christopher Froome83:19:37
Climb
Julian Alaphilippe170 pt.
Warren Barguil91 pt.
Rafal Majka76 pt.
Sprint
Peter Sagan477 pt.
Alexander Kristoff246 pt.
Arnaud Démare203 pt.
Youth
Pierre-Roger Latou..83:39:26
Egan Bernal83:45:05
Guillaume Martin84:01:31
Facts from Tour de France 1949
  |   Stages.  |   Stage winners.  |   Days in yellow  |   Average speed.  |   Route.  |   Teams.  |   All riders.  |   Rookies.  |  

  |   Withdrawls.  |   GC.  |   Polka  |   Green  |   White  |   Summits. (In tour)  |   Miscellaneous.  |  

Stage 1 on 30 - 06 - 1949
  
Pick a stage:  1 2 3 4 5 6 7 8 9 10 11 12 13 14 15 16 17 18 19 20 21
  ParisReims | Dist: 182.00 km.

Average speed for all riders in stage:  33,965 km./hr.
    Place:Name:Team:Time:Km/h:
1
FRAMarcel DussaultFRACenter-South West05:13:59  +  00:00:00=34,779 
2
BELLeon JomauxBELBelgium05:14:24  +  00:00:25=34,733 
3
FRAEloi TassinFRAWest-North05:14:24  +  00:00:25=34,733 
44 FRAPierre MolinerisFRASouth-East05:14:24  +  00:00:25=34,733 
55 BELRoger LambrechtBELBelgium05:14:24  +  00:00:25=34,733 
66 FRAJean RobicFRAWest-North05:15:11  +  00:01:12=34,647 
77 FRAJacques MarinelliFRAIle De France05:15:11  +  00:01:12=34,647 
88 BELRik Van SteenbergenBELBelgium05:15:24  +  00:01:25=34,623 
99 FRAAlbert DolhatsFRACenter-South West05:15:48  +  00:01:49=34,579 
1010 FRALouis CaputFRAIle De France05:15:48  +  00:01:49=34,579 
1111 FRAEmile IdéeFRAIle De France05:15:48  +  00:01:49=34,579 
1212 FRAEdouard MullerFRAIle De France05:15:48  +  00:01:49=34,579 
1313 ITAGino BartaliITAItaly05:15:48  +  00:01:49=34,579 
1414 ITASerifano BiagioniITAItaly05:15:48  +  00:01:49=34,579 
1515 ITAFausto CoppiITAItaly05:15:48  +  00:01:49=34,579 
1616 ITAMario RicciITAItaly05:15:48  +  00:01:49=34,579 
1717 BELRoger GhyselinckBELBelgium05:15:48  +  00:01:49=34,579 
1818 BELNorbert CallensBELBelgium05:15:48  +  00:01:49=34,579 
1919 BELRaymond ImpanisBELBelgium05:15:48  +  00:01:49=34,579 
2020 BELDésiré KeteleerBELBelgium05:15:48  +  00:01:49=34,579 
2121 BELStan OckersBELBelgium05:15:48  +  00:01:49=34,579 
2222 BELBriek SchotteBELBelgium05:15:48  +  00:01:49=34,579 
2323 FRALouison BobetFRAFrance05:15:48  +  00:01:49=34,579 
2424 FRARobert ChapatteFRAFrance05:15:48  +  00:01:49=34,579 
2525 FRALouis DeprezFRAFrance05:15:48  +  00:01:49=34,579 
2626 FRAMaurice DiotFRAFrance05:15:48  +  00:01:49=34,579 
2727 FRABernard GauthierFRAFrance05:15:48  +  00:01:49=34,579 
2828 FRARaphaël GeminianiFRAFrance05:15:48  +  00:01:49=34,579 
2929 FRAGuy LapébieFRAFrance05:15:48  +  00:01:49=34,579 
3030 FRAJean-Apotre LazaridesFRAFrance05:15:48  +  00:01:49=34,579 
3131 FRALucien LazaridesFRAFrance05:15:48  +  00:01:49=34,579 
3232 FRALucien TeisseireFRAFrance05:15:48  +  00:01:49=34,579 
3333 LUXJean GoldschmitLUXLuxembourg05:15:48  +  00:01:49=34,579 
3434 LUXJean KirchenLUXLuxembourg05:15:48  +  00:01:49=34,579 
3535 NEDWim De RuyterNLDHolland05:15:48  +  00:01:49=34,579 
3636 NEDHuub SijenNLDHolland05:15:48  +  00:01:49=34,579 
3737 ITAVittorio MagniITACadetti Italiens05:15:48  +  00:01:49=34,579 
3838 ITAAlfredo MartiniITACadetti Italiens05:15:48  +  00:01:49=34,579 
3939 BELMarcel De MulderBELAiglons Belges05:15:48  +  00:01:49=34,579 
4040 BELMarcel DupontBELAiglons Belges05:15:48  +  00:01:49=34,579 
4141 BELJacques GeusBELAiglons Belges05:15:48  +  00:01:49=34,579 
4242 BELMarcel HendrickxBELAiglons Belges05:15:48  +  00:01:49=34,579 
4343 FRAAndré BruléFRAIle De France05:15:48  +  00:01:49=34,579 
4444 ITAAttilio RedolfiFRAIle De France05:15:48  +  00:01:49=34,579 
4545 ITAGiuseppe TaccaFRAIle De France05:15:48  +  00:01:49=34,579 
4646 FRAPierre CoganFRAWest-North05:15:48  +  00:01:49=34,579 
4747 FRAJean-Marie GoasmatFRAWest-North05:15:48  +  00:01:49=34,579 
4848 GEREdouard KlabinskiFRAWest-North05:15:48  +  00:01:49=34,579 
4949 FRAAndre MahéFRAWest-North05:15:48  +  00:01:49=34,579 
5050 FRARoger PontetFRAWest-North05:15:48  +  00:01:49=34,579 
5151 FRAJean BlancFRACenter-South West05:15:48  +  00:01:49=34,579 
5252 FRARobert DesbatsFRACenter-South West05:15:48  +  00:01:49=34,579 
5353 ITABruno GaronziFRACenter-South West05:15:48  +  00:01:49=34,579 
5454 FRARoger LevequeFRACenter-South West05:15:48  +  00:01:49=34,579 
5555 FRAHenri MassalFRACenter-South West05:15:48  +  00:01:49=34,579 
5656 ITAFermo CamelliniFRASouth-East05:15:48  +  00:01:49=34,579 
5757 ITAÉdouard FachleitnerFRASouth-East05:15:48  +  00:01:49=34,579 
5858 ITANello LaurediFRASouth-East05:15:48  +  00:01:49=34,579 
5959 FRAPaul PineauFRACenter-South West05:15:48  +  00:01:49=34,579 
6060 FRAAntonin RollandFRASouth-East05:15:48  +  00:01:49=34,579 
6161 SUIFerdi KüblerCHESwitzerland05:15:48  +  00:01:49=34,579 
6262 LUXJean DiederichLUXLuxembourg05:15:48  +  00:01:49=34,579 
6363 LUXMarcel ErnzerLUXLuxembourg05:15:48  +  00:01:49=34,579 
6464 FRARené ViettoFRAFrance05:16:14  +  00:02:15=34,531 
6565 FRADominique ForliniFRAIle De France05:19:24  +  00:05:25=34,189 
6666 ITAGino SciardisITAItaly05:19:24  +  00:05:25=34,189 
6767 ITAAdolphe DeleddaFRASouth-East05:20:38  +  00:06:39=34,058 
6868 FRAFrançois PersonFRAWest-North05:20:38  +  00:06:39=34,058 
6969 LUXRené BieverLUXLuxembourg05:21:28  +  00:07:29=33,969 
7070 FRAGeorges MartinFRASouth-East05:21:51  +  00:07:52=33,929 
7171 SUIHans HutmacherCHESwitzerland05:21:51  +  00:07:52=33,929 
7272 FRAAnge Le StratFRAWest-North05:21:51  +  00:07:52=33,929 
7373 NEDAndré De KorverNLDHolland05:22:11  +  00:08:12=33,894 
7474 FRAJean ReyFRASouth-East05:22:11  +  00:08:12=33,894 
7575 BELEdward Van DijckBELBelgium05:22:11  +  00:08:12=33,894 
7676 BELJean BreuerBELAiglons Belges05:22:11  +  00:08:12=33,894 
7777 ITAEttore MilanoITAItaly05:22:11  +  00:08:12=33,894 
7878 BELLucien MaelfaitFRAWest-North05:22:11  +  00:08:12=33,894 
7979 BELMarcel KintBELBelgium05:22:11  +  00:08:12=33,894 
8080 ESPJosé SerraESPSpain05:22:11  +  00:08:12=33,894 
8181 SUIPierre BrambillaFRASouth-East05:22:11  +  00:08:12=33,894 
8282 MARCustodio Dos ReisFRACenter-South West05:23:24  +  00:09:25=33,766 
8383 BELFlorent MathieuBELBelgium05:23:24  +  00:09:25=33,766 
8484 NEDFrans PauwelsNLDHolland05:23:24  +  00:09:25=33,766 
8585 GERCésar MarcelakFRAWest-North05:23:24  +  00:09:25=33,766 
8686 ITAGiuseppe CeramiITACadetti Italiens05:27:03  +  00:13:04=33,389 
8787 ITALuciano PezziITAItaly05:27:03  +  00:13:04=33,389 
8888 FRARobert DorgebrayFRAIle De France05:27:03  +  00:13:04=33,389 
8989 ITASylvio PedroniITACadetti Italiens05:27:03  +  00:13:04=33,389 
9090 SUIErnst StettlerCHESwitzerland05:27:03  +  00:13:04=33,389 
9191 FRARaymond LucasFRAIle De France05:28:16  +  00:14:17=33,266 
9292 FRAPaul GiguetFRASouth-East05:28:16  +  00:14:17=33,266 
9393 FRARoger Le NizerhyFRAWest-North05:29:36  +  00:15:37=33,131 
9494 FRAGeorges GuillierFRAIle De France05:29:36  +  00:15:37=33,131 
9595 ITAGiovanni CorrieriITAItaly05:29:36  +  00:15:37=33,131 
9696 BELJoseph VerhaertBELAiglons Belges05:29:36  +  00:15:37=33,131 
9797 FRARoger BuchonnetFRACenter-South West05:29:36  +  00:15:37=33,131 
9898 ITAPaul NeriFRASouth-East05:29:36  +  00:15:37=33,131 
9999 ITAVincenzo RosselloITAItaly05:29:36  +  00:15:37=33,131 
100100 FRARaoul RemyFRASouth-East05:29:36  +  00:15:37=33,131 
101101 ITAGuido De SantiITAItaly05:29:36  +  00:15:37=33,131 
102102 FRACamille DanguillaumeFRAFrance05:29:36  +  00:15:37=33,131 
103103 ITABruno PasquiniITAItaly05:32:12  +  00:18:13=32,872 
104104 SUIGottfried WeilenmannCHESwitzerland05:33:24  +  00:19:25=32,753 
105105 FRAGeorges RamouluxFRACenter-South West05:33:24  +  00:19:25=32,753 
106106 NEDHenk de HoogNLDHolland05:33:24  +  00:19:25=32,753 
107107 NEDJan LambrichsNLDHolland05:33:24  +  00:19:25=32,753 
108108 ESPDalmácio LangaricaESPSpain05:33:24  +  00:19:25=32,753 
109109 SUIRoger AeschlimannCHESwitzerland05:33:24  +  00:19:25=32,753 
110110 SUIGeorges AeschlimannCHESwitzerland05:33:24  +  00:19:25=32,753 
111111 ITAAngelo BrignoleITAItaly05:34:37  +  00:20:38=32,634 
112112 ITAGiuseppe AusendaITACadetti Italiens05:37:01  +  00:23:02=32,402 
113113 ITAArmando PeverelliITACadetti Italiens05:37:01  +  00:23:02=32,402 
114114 ESPJulián BerrenderoESPSpain05:42:32  +  00:28:33=31,880 
115115 ESPBernardo RuízESPSpain05:42:32  +  00:28:33=31,880 
116116 ESPEmilio RodriguezESPSpain05:42:32  +  00:28:33=31,880 
117117 PORAntoine GomezFRACenter-South West05:42:32  +  00:28:33=31,880 
118118 FRALouis ThiétardFRAIle De France05:42:32  +  00:28:33=31,880 

Withdrawls: 2
 
Rider
Team
Reason
47  LUXWilly KempLUXLuxembourgDid not finish
56  ESPBernardo CapoESPSpainDid not finish
Todays birthdays.

1874  Achille Colas
1895  Lucien Meunier
1902  Lazare Venot
1915  Albert Gijsen
1924  Marcel Zelasco
1930  Juan Campillo
1931  Jean-Claude Skerl
1934  Jean Selic
1935  Arnaldo Pambianco
1955  Mario Beccia
1956  Daniel Willems
1957  Dominique Sanders
1959  Marc Sergeant
1960  Éric Caritoux
1963  Jelle Nijdam
1971  Arnaud Prétot
1980  Piet Rooijakkers